Del Rio International Airport
KDRT : now visible

Airfield :











YOU CAN JOIN US ON...

 
LOGIN :

Register | Disclaimer

   EN    FR    IT 

 









Legend :    VFR   Marginal VFR   IFR   Intensive IFR   Very Intensive IFR
Visi :
Ceiling :
>= 8 km
>= 3000ft
5 to 8 km
1000 to 3000 ft
1500m to 5 km
500 to 1000 ft
800 to 1500m
200 to 500 ft
< 800m
< 200 ft
Symbols :   Thunderstorms  Fog  Heavy snow  Heavy precipitations  Wind > 20 kt






- Airport Elevation : 1002 ft


KDRT - Del Rio International

CURRENT METAR :
  • 230853Z AUTO 11011G17KT 6SM HZ FEW017 BKN028 28/24 A2971 RMK AO2 SLP050 T02830239 55002

EXPIRED METARs :
  • 230753Z AUTO 09011KT 6SM HZ CLR 29/24 A2971 RMK AO2 PK WND 10026/0737 SLP046 T02940244
  • 230653Z AUTO 09013G22KT 6SM HZ CLR 30/24 A2972 RMK AO2 PK WND 10028/0604 SLP050 T03000244
  • 230553Z AUTO 10012KT 8SM CLR 31/24 A2973 RMK AO2 SLP054 T03110239 10339 20306 403390272 51007
  • 230453Z AUTO 07009KT 7SM CLR 31/22 A2973 RMK AO2 SLP054 T03110222

TAF KDRT
Valid from the 23 at 06:00 until the 24 at 06:00 UTC


230522Z 2306/2406 10010KT P6SM SKC
FM231100 13009KT 5SM HZ BKN012
FM231600 14005KT 5SM HZ BKN025
FM231800 13006KT 6SM HZ SCT250
KZHU FIR / North America



MET'MAP, your aeronautical weather chart ! - Copyright ORBIFLY December 2007 - Disclaimer

ORBIFLY MET'MAP TEAM :

Programming & Development : Alexandra Zaïnal
Original concept : Baudouin d'Aumeries
Technical & hardware support : Manuel Goepfert
Assistance : Marc-Olivier Méhu




SOURCES & CREDITS :

   NOAA       Earth
Advisory